Time;durP1;ratioP1;P1;durP2;ratioP2;P2;SDS_P1;SDS_P2;PMS_P1;PMS_P2;Temp;Humidity;BMP_temperature;BMP_pressure;BME280_temperature;BME280_humidity;BME280_pressure;Samples;Min_cycle;Max_cycle;Signal;HPM_P1;HPM_P2
2021/06/02 00:00:15;;;;;;;10.70;1.77;;;42.00;12.30;;;;;;5087590;28;20087;-64
2021/06/02 00:02:50;;;;;;;3.63;1.10;;;42.10;12.20;;;;;;5089118;28;20082;-64
2021/06/02 00:05:18;;;;;;;8.02;1.55;;;42.10;12.00;;;;;;5087057;28;20072;-65
2021/06/02 00:07:46;;;;;;;7.30;1.55;;;42.00;12.30;;;;;;5084146;28;20564;-65
2021/06/02 00:10:15;;;;;;;4.68;1.50;;;41.90;12.10;;;;;;5069222;28;20541;-65
2021/06/02 00:12:42;;;;;;;12.30;1.60;;;41.70;11.70;;;;;;5084520;28;20093;-66
2021/06/02 00:15:11;;;;;;;11.98;2.03;;;41.60;12.50;;;;;;5086971;28;20115;-65
2021/06/02 00:17:38;;;;;;;11.13;1.70;;;41.60;12.60;;;;;;5080482;28;20164;-64
2021/06/02 00:20:07;;;;;;;6.65;1.30;;;41.60;12.90;;;;;;5082770;28;20109;-64
2021/06/02 00:22:34;;;;;;;6.95;1.33;;;41.70;12.00;;;;;;5077492;28;20077;-64
2021/06/02 00:25:01;;;;;;;6.03;1.42;;;41.60;12.70;;;;;;5081667;28;20465;-64
2021/06/02 00:27:30;;;;;;;11.38;1.52;;;41.50;12.40;;;;;;5084178;28;20068;-65
2021/06/02 00:30:00;;;;;;;9.82;1.45;;;41.40;12.80;;;;;;5079932;28;20406;-64
2021/06/02 00:32:28;;;;;;;7.10;1.23;;;41.50;11.90;;;;;;5070970;28;20151;-64
2021/06/02 00:34:55;;;;;;;11.15;1.50;;;41.50;13.80;;;;;;5080282;28;20126;-64
2021/06/02 00:37:22;;;;;;;9.60;1.65;;;41.30;12.50;;;;;;5059787;28;20522;-64
2021/06/02 00:39:49;;;;;;;6.72;1.77;;;41.20;12.70;;;;;;5078051;28;20088;-64
2021/06/02 00:42:16;;;;;;;10.10;1.40;;;41.00;12.70;;;;;;5082391;28;20124;-64
2021/06/02 00:44:43;;;;;;;12.77;1.20;;;41.00;12.00;;;;;;5063532;28;20176;-64
2021/06/02 00:47:09;;;;;;;13.88;1.95;;;40.90;12.50;;;;;;5088466;28;20081;-65
2021/06/02 00:49:36;;;;;;;14.23;1.67;;;40.90;12.20;;;;;;5064477;28;20085;-63
2021/06/02 00:52:07;;;;;;;9.27;1.92;;;40.70;12.50;;;;;;5074328;28;20168;-64
2021/06/02 00:54:37;;;;;;;6.28;1.65;;;40.60;12.50;;;;;;5076134;28;20083;-65
2021/06/02 00:57:13;;;;;;;6.60;1.35;;;40.60;12.70;;;;;;5084076;28;20560;-65
2021/06/02 00:59:56;;;;;;;14.25;1.90;;;40.70;12.60;;;;;;5084869;28;20468;-65
2021/06/02 01:02:23;;;;;;;9.20;1.75;;;40.60;13.00;;;;;;5080768;28;20206;-65
2021/06/02 01:04:53;;;;;;;11.52;2.03;;;40.50;12.60;;;;;;5084923;28;20478;-64
2021/06/02 01:07:23;;;;;;;12.68;2.40;;;40.50;12.90;;;;;;5080990;28;20101;-65
2021/06/02 01:09:52;;;;;;;11.13;2.05;;;40.30;13.00;;;;;;5077120;28;20576;-65
2021/06/02 01:12:22;;;;;;;18.23;2.40;;;40.30;13.00;;;;;;5076853;28;20465;-65
2021/06/02 01:14:50;;;;;;;14.90;2.28;;;40.20;13.10;;;;;;5085698;28;20073;-64
2021/06/02 01:17:18;;;;;;;7.35;1.73;;;40.00;13.20;;;;;;5079316;28;20065;-65
2021/06/02 01:19:45;;;;;;;15.52;1.67;;;40.00;13.30;;;;;;5086115;28;20166;-65
2021/06/02 01:22:12;;;;;;;10.93;1.73;;;39.90;12.80;;;;;;5078398;28;20127;-65
2021/06/02 01:24:39;;;;;;;10.13;1.70;;;39.70;12.80;;;;;;5085998;28;20069;-66
2021/06/02 01:27:08;;;;;;;12.60;2.03;;;39.70;13.10;;;;;;5086613;28;20131;-65
2021/06/02 01:29:39;;;;;;;15.80;2.00;;;39.50;13.20;;;;;;5082209;28;20068;-65
2021/06/02 01:32:34;;;;;;;12.80;2.22;;;39.60;13.30;;;;;;5081123;28;20522;-65
2021/06/02 01:35:16;;;;;;;15.52;2.05;;;39.50;13.50;;;;;;5065781;28;20159;-66
2021/06/02 01:37:45;;;;;;;15.20;1.85;;;39.30;13.40;;;;;;5086173;28;20077;-66
2021/06/02 01:40:57;;;;;;;11.60;2.13;;;39.30;14.00;;;;;;5086574;28;20075;-65
2021/06/02 01:43:41;;;;;;;14.10;2.17;;;39.20;13.30;;;;;;5056641;28;20088;-65
2021/06/02 01:46:11;;;;;;;12.05;2.10;;;39.10;13.20;;;;;;5083919;28;20068;-65
2021/06/02 01:48:56;;;;;;;7.90;1.88;;;39.00;13.40;;;;;;5070297;28;20077;-65
2021/06/02 01:51:56;;;;;;;12.68;1.90;;;38.80;14.00;;;;;;5077922;28;20085;-66
2021/06/02 01:55:04;;;;;;;17.48;2.47;;;38.70;14.10;;;;;;5077868;28;20080;-66
2021/06/02 01:57:49;;;;;;;15.00;1.80;;;38.50;14.40;;;;;;5067083;28;20088;-66
2021/06/02 02:00:29;;;;;;;17.55;2.20;;;38.40;14.60;;;;;;5081692;28;20093;-66
2021/06/02 02:03:19;;;;;;;13.70;2.58;;;38.30;14.90;;;;;;5080458;28;20444;-65
2021/06/02 02:06:04;;;;;;;23.30;2.45;;;38.20;15.20;;;;;;5075258;28;20073;-65
2021/06/02 02:08:46;;;;;;;18.13;2.58;;;38.00;15.60;;;;;;5080417;28;20159;-65
2021/06/02 02:11:34;;;;;;;19.20;2.25;;;37.90;15.70;;;;;;5084334;28;20078;-65
2021/06/02 02:14:21;;;;;;;14.02;2.30;;;37.80;15.90;;;;;;5073971;28;20088;-65
2021/06/02 02:17:16;;;;;;;13.68;2.40;;;37.60;16.10;;;;;;5072090;28;20164;-66
2021/06/02 02:20:05;;;;;;;14.65;2.60;;;37.40;16.00;;;;;;5056833;28;20139;-66
2021/06/02 02:22:59;;;;;;;21.02;2.58;;;37.20;16.40;;;;;;5080312;28;20601;-65
2021/06/02 02:25:44;;;;;;;22.40;2.83;;;37.10;16.50;;;;;;5060428;28;20160;-65
2021/06/02 02:28:32;;;;;;;34.17;3.50;;;37.10;16.70;;;;;;5080875;28;20081;-65
2021/06/02 02:31:10;;;;;;;28.42;4.15;;;37.00;16.80;;;;;;5079610;28;20080;-65
2021/06/02 02:33:53;;;;;;;38.67;4.10;;;36.90;16.80;;;;;;5075077;28;20522;-66
2021/06/02 02:36:42;;;;;;;34.22;4.28;;;36.90;17.00;;;;;;5077814;28;20077;-65
2021/06/02 02:39:12;;;;;;;30.63;5.45;;;36.80;17.20;;;;;;5076269;28;20538;-65
2021/06/02 02:42:16;;;;;;;33.28;4.55;;;36.60;17.10;;;;;;5076637;28;20537;-65
2021/06/02 02:45:19;;;;;;;31.20;4.78;;;36.50;17.40;;;;;;5072291;28;20165;-65
2021/06/02 02:48:07;;;;;;;27.20;4.60;;;36.40;17.50;;;;;;5082251;28;20141;-65
2021/06/02 02:51:18;;;;;;;37.80;5.07;;;36.30;17.60;;;;;;5083131;28;20072;-64
2021/06/02 02:54:03;;;;;;;28.95;4.28;;;36.10;17.70;;;;;;5080630;28;20449;-64
2021/06/02 02:56:50;;;;;;;33.70;4.93;;;36.00;17.90;;;;;;5079230;28;20080;-64
2021/06/02 02:59:36;;;;;;;36.83;5.60;;;35.90;17.90;;;;;;5076815;28;20100;-64
2021/06/02 03:02:40;;;;;;;35.75;4.45;;;35.70;17.80;;;;;;5078734;28;20097;-65
2021/06/02 03:05:13;;;;;;;31.60;5.55;;;35.60;17.70;;;;;;5083034;28;20075;-64
2021/06/02 03:07:45;;;;;;;37.83;6.40;;;35.50;17.60;;;;;;5085689;28;20445;-64
2021/06/02 03:10:17;;;;;;;27.23;5.95;;;35.50;17.30;;;;;;5084980;28;20073;-64
2021/06/02 03:13:05;;;;;;;28.98;6.07;;;35.40;17.10;;;;;;5090839;28;20083;-65
2021/06/02 03:15:50;;;;;;;28.48;7.00;;;35.40;17.20;;;;;;5081483;28;20085;-65
2021/06/02 03:18:50;;;;;;;35.88;8.27;;;35.20;16.90;;;;;;5075624;28;21395;-65
2021/06/02 03:21:43;;;;;;;41.47;9.73;;;35.20;17.10;;;;;;5065414;28;20460;-64
2021/06/02 03:24:21;;;;;;;35.50;9.25;;;35.10;17.10;;;;;;5077365;28;20073;-65
2021/06/02 03:27:01;;;;;;;34.30;7.35;;;35.00;17.20;;;;;;5054890;28;20510;-65
2021/06/02 03:29:57;;;;;;;33.53;6.72;;;34.90;17.20;;;;;;5079518;28;20079;-65
2021/06/02 03:32:42;;;;;;;26.90;5.22;;;34.90;17.30;;;;;;5079043;28;20072;-65
2021/06/02 03:35:32;;;;;;;30.35;4.53;;;34.80;17.30;;;;;;5077950;28;20084;-65
2021/06/02 03:38:26;;;;;;;19.52;4.85;;;34.70;17.20;;;;;;5078621;28;20172;-65
2021/06/02 03:41:34;;;;;;;23.38;3.30;;;34.60;17.40;;;;;;5080167;28;20307;-65
2021/06/02 03:44:18;;;;;;;28.13;3.15;;;34.60;17.40;;;;;;5080009;28;20069;-65
2021/06/02 03:47:03;;;;;;;22.33;3.20;;;34.50;17.50;;;;;;5083237;28;20159;-65
2021/06/02 03:49:54;;;;;;;28.65;3.25;;;34.40;17.50;;;;;;5083890;28;20459;-65
2021/06/02 03:52:48;;;;;;;14.30;2.88;;;34.30;17.60;;;;;;5084206;28;20085;-65
2021/06/02 03:55:42;;;;;;;23.58;3.50;;;34.20;17.70;;;;;;5087531;28;20079;-65
2021/06/02 03:58:52;;;;;;;22.05;3.30;;;34.10;17.80;;;;;;5084161;28;20068;-65
2021/06/02 04:01:44;;;;;;;27.65;2.92;;;34.10;17.90;;;;;;5063721;28;20105;-65
2021/06/02 04:04:58;;;;;;;27.33;3.22;;;34.00;18.00;;;;;;5082150;28;20112;-65
2021/06/02 04:07:54;;;;;;;28.65;3.08;;;34.00;18.00;;;;;;5043129;28;20097;-65
2021/06/02 04:10:59;;;;;;;29.85;2.78;;;33.90;18.20;;;;;;5080764;28;20426;-64
2021/06/02 04:13:31;;;;;;;17.30;2.78;;;33.90;18.10;;;;;;5086750;28;20530;-64
2021/06/02 04:16:16;;;;;;;24.95;4.63;;;33.70;18.50;;;;;;5086907;28;20088;-65
2021/06/02 04:18:46;;;;;;;19.77;3.25;;;33.60;18.60;;;;;;5082612;28;20132;-65
2021/06/02 04:21:21;;;;;;;23.58;2.72;;;33.50;18.60;;;;;;5078771;28;20225;-65
2021/06/02 04:23:48;;;;;;;21.65;2.63;;;33.50;18.50;;;;;;5081426;28;20424;-65
2021/06/02 04:26:15;;;;;;;16.08;2.63;;;33.40;18.80;;;;;;5088242;28;20567;-65
2021/06/02 04:28:42;;;;;;;16.15;2.67;;;33.40;18.80;;;;;;5082658;28;20088;-65
2021/06/02 04:31:11;;;;;;;19.92;2.80;;;33.40;19.00;;;;;;5065413;28;20080;-65
2021/06/02 04:33:40;;;;;;;18.85;2.90;;;33.30;18.80;;;;;;5081575;28;20076;-65
2021/06/02 04:36:10;;;;;;;30.48;3.53;;;33.20;19.00;;;;;;5079806;28;20076;-65
2021/06/02 04:38:38;;;;;;;24.63;3.63;;;33.20;19.20;;;;;;5082397;28;20155;-65
2021/06/02 04:41:07;;;;;;;31.10;4.22;;;33.20;19.20;;;;;;5077995;28;20097;-65
2021/06/02 04:43:40;;;;;;;33.58;5.60;;;33.10;19.30;;;;;;5080031;28;20402;-66
2021/06/02 04:46:09;;;;;;;45.13;7.30;;;33.00;19.50;;;;;;5091694;28;20075;-65
2021/06/02 04:48:36;;;;;;;41.83;8.30;;;33.00;19.60;;;;;;5089079;28;20154;-65
2021/06/02 04:51:30;;;;;;;45.75;8.65;;;32.90;19.80;;;;;;5091688;28;20076;-66
2021/06/02 04:53:57;;;;;;;44.60;8.90;;;32.80;19.70;;;;;;5087114;28;20183;-66
2021/06/02 04:56:54;;;;;;;53.83;9.00;;;32.70;19.90;;;;;;5083516;28;20146;-66
2021/06/02 04:59:39;;;;;;;58.80;9.00;;;32.70;20.20;;;;;;5084380;28;20069;-66
2021/06/02 05:02:26;;;;;;;76.47;9.25;;;32.70;20.30;;;;;;5081315;28;20550;-66
2021/06/02 05:05:22;;;;;;;50.08;9.38;;;32.60;20.50;;;;;;5079980;28;20077;-66
2021/06/02 05:08:37;;;;;;;48.40;8.13;;;32.50;20.50;;;;;;5080699;28;20543;-65
2021/06/02 05:11:51;;;;;;;43.03;6.57;;;32.40;20.90;;;;;;5075416;28;20142;-65
2021/06/02 05:14:51;;;;;;;41.33;6.47;;;32.40;21.40;;;;;;5087322;28;20163;-65
2021/06/02 05:17:24;;;;;;;49.22;7.05;;;32.30;21.70;;;;;;5083768;28;20525;-65
2021/06/02 05:20:21;;;;;;;40.47;8.90;;;32.10;21.80;;;;;;5079649;28;20196;-65
2021/06/02 05:22:50;;;;;;;43.00;9.18;;;31.90;22.30;;;;;;5071094;28;20073;-65
2021/06/02 05:25:47;;;;;;;32.33;8.63;;;31.80;22.90;;;;;;5086163;28;20062;-65
2021/06/02 05:28:51;;;;;;;32.50;8.07;;;31.80;23.50;;;;;;5084942;28;20076;-64
2021/06/02 05:31:39;;;;;;;37.80;8.43;;;31.70;23.80;;;;;;5086657;28;20138;-66
2021/06/02 05:34:30;;;;;;;34.65;7.90;;;31.70;24.10;;;;;;5079468;28;20548;-66
2021/06/02 05:37:21;;;;;;;29.55;7.32;;;31.70;24.30;;;;;;5074720;28;20127;-66
2021/06/02 05:39:56;;;;;;;37.67;7.32;;;31.50;24.40;;;;;;5088470;28;20110;-66
2021/06/02 05:42:40;;;;;;;39.63;7.47;;;31.40;24.60;;;;;;5082395;28;20106;-65
2021/06/02 05:45:16;;;;;;;32.47;8.43;;;31.40;24.80;;;;;;5081968;28;20080;-65
2021/06/02 05:47:48;;;;;;;35.53;10.30;;;31.30;25.00;;;;;;5076682;28;20069;-66
2021/06/02 05:50:52;;;;;;;31.90;12.43;;;31.20;25.30;;;;;;5078708;28;20167;-66
2021/06/02 05:53:40;;;;;;;49.65;13.32;;;31.10;25.50;;;;;;5079488;28;20095;-67
2021/06/02 05:56:37;;;;;;;44.08;12.38;;;30.90;25.80;;;;;;5085885;28;20084;-65
2021/06/02 05:59:28;;;;;;;37.20;11.93;;;30.90;25.90;;;;;;5097796;28;20068;-66
2021/06/02 06:02:13;;;;;;;44.97;11.30;;;30.90;26.20;;;;;;5081789;28;20561;-65
2021/06/02 06:05:06;;;;;;;48.33;10.85;;;30.90;26.10;;;;;;5081117;28;20073;-65
2021/06/02 06:07:36;;;;;;;41.70;10.82;;;30.80;26.00;;;;;;5079769;28;20196;-65
2021/06/02 06:10:25;;;;;;;41.95;9.93;;;30.70;26.20;;;;;;5082525;28;20104;-66
2021/06/02 06:13:19;;;;;;;33.05;8.23;;;30.60;26.20;;;;;;5082145;28;20132;-65
2021/06/02 06:16:16;;;;;;;32.55;6.63;;;30.60;26.40;;;;;;5078526;28;20418;-65
2021/06/02 06:19:11;;;;;;;37.25;6.38;;;30.60;26.50;;;;;;5080033;28;20092;-65
2021/06/02 06:21:56;;;;;;;33.35;6.18;;;30.60;26.70;;;;;;5081845;28;20182;-66
2021/06/02 06:24:41;;;;;;;33.42;6.22;;;30.60;26.90;;;;;;5077583;28;20121;-66
2021/06/02 06:27:56;;;;;;;27.77;5.70;;;30.50;26.60;;;;;;5080970;28;20077;-66
2021/06/02 06:30:34;;;;;;;31.27;5.30;;;30.50;26.80;;;;;;5060330;28;20088;-66
2021/06/02 06:33:08;;;;;;;25.25;5.13;;;30.40;26.90;;;;;;5089126;28;20072;-66
2021/06/02 06:35:38;;;;;;;23.17;5.03;;;30.30;27.10;;;;;;5079239;28;20809;-66
2021/06/02 06:38:08;;;;;;;30.13;5.07;;;30.40;27.50;;;;;;5076595;28;20617;-65
2021/06/02 06:40:36;;;;;;;19.08;4.20;;;30.30;27.40;;;;;;5082556;28;20101;-65
2021/06/02 06:43:06;;;;;;;23.00;5.35;;;30.30;27.50;;;;;;5062370;28;20065;-66
2021/06/02 06:45:35;;;;;;;38.13;9.43;;;30.20;27.80;;;;;;5088086;28;20077;-65
2021/06/02 06:48:14;;;;;;;36.78;10.20;;;30.00;28.10;;;;;;5063630;28;20081;-65
2021/06/02 06:50:46;;;;;;;38.80;9.20;;;30.00;28.30;;;;;;5066021;28;20095;-65
2021/06/02 06:53:13;;;;;;;20.55;6.15;;;29.90;28.50;;;;;;5060585;28;20157;-65
2021/06/02 06:55:40;;;;;;;13.40;4.57;;;29.80;28.80;;;;;;5080659;28;20076;-65
2021/06/02 06:58:09;;;;;;;20.58;4.97;;;29.70;29.20;;;;;;5061169;28;20073;-65
2021/06/02 07:00:36;;;;;;;19.98;3.95;;;29.70;29.40;;;;;;5079150;28;20449;-65
2021/06/02 07:03:03;;;;;;;24.67;4.88;;;29.70;29.40;;;;;;5082095;28;20081;-65
2021/06/02 07:05:30;;;;;;;20.67;4.55;;;29.70;29.60;;;;;;5087541;28;20084;-65
2021/06/02 07:07:57;;;;;;;19.73;5.10;;;29.70;29.50;;;;;;5077798;28;20080;-65
2021/06/02 07:10:24;;;;;;;18.20;5.22;;;29.60;29.50;;;;;;5081266;28;20073;-66
2021/06/02 07:12:50;;;;;;;26.05;5.47;;;29.60;29.80;;;;;;5083669;28;20441;-64
2021/06/02 07:15:17;;;;;;;16.85;5.43;;;29.60;29.60;;;;;;5081029;28;20118;-64
2021/06/02 07:17:48;;;;;;;16.98;5.35;;;29.60;29.90;;;;;;5084026;28;20163;-67
2021/06/02 07:20:18;;;;;;;20.17;5.93;;;29.60;29.80;;;;;;5086181;28;20108;-65
2021/06/02 07:22:47;;;;;;;18.15;5.50;;;29.40;29.90;;;;;;5078173;28;20085;-65
2021/06/02 07:25:19;;;;;;;22.38;5.70;;;29.40;30.10;;;;;;5083524;28;20402;-65
2021/06/02 07:27:48;;;;;;;24.42;6.70;;;29.30;30.20;;;;;;5091045;28;20163;-65
2021/06/02 07:30:19;;;;;;;29.38;8.57;;;29.30;30.50;;;;;;5089788;28;20077;-65
2021/06/02 07:32:46;;;;;;;19.38;8.75;;;29.20;30.60;;;;;;5087906;28;20076;-65
2021/06/02 07:35:13;;;;;;;25.45;9.05;;;29.20;30.70;;;;;;5084244;28;20436;-65
2021/06/02 07:37:39;;;;;;;22.13;8.27;;;29.00;30.90;;;;;;5087304;28;20064;-65
2021/06/02 07:40:08;;;;;;;29.35;13.23;;;29.00;31.00;;;;;;5080097;28;20111;-65
2021/06/02 07:42:35;;;;;;;31.75;14.43;;;29.00;31.40;;;;;;5083571;28;20092;-65
2021/06/02 07:45:03;;;;;;;34.42;15.15;;;28.90;31.60;;;;;;5085282;28;20069;-65
2021/06/02 07:47:29;;;;;;;29.67;15.65;;;29.00;31.80;;;;;;5086193;28;20061;-65
2021/06/02 07:49:56;;;;;;;27.83;14.88;;;29.00;32.60;;;;;;5087692;28;20073;-65
2021/06/02 07:52:24;;;;;;;31.77;14.45;;;28.90;32.10;;;;;;5087157;28;20093;-65
2021/06/02 07:54:51;;;;;;;32.30;15.63;;;28.90;33.40;;;;;;5082498;28;20534;-65
2021/06/02 07:57:17;;;;;;;28.95;15.30;;;28.70;32.80;;;;;;5084229;28;21439;-65
2021/06/02 07:59:44;;;;;;;39.85;16.02;;;28.70;32.70;;;;;;5081723;28;20129;-65
2021/06/02 08:02:11;;;;;;;30.92;15.15;;;28.70;33.30;;;;;;5082673;28;20124;-65
2021/06/02 08:04:37;;;;;;;35.30;17.95;;;28.60;33.30;;;;;;5083070;28;20206;-65
2021/06/02 08:07:07;;;;;;;48.60;18.77;;;28.70;33.90;;;;;;5078804;28;20077;-65
2021/06/02 08:09:35;;;;;;;37.92;17.75;;;28.60;34.30;;;;;;5078291;28;20163;-65
2021/06/02 08:12:02;;;;;;;34.25;18.17;;;28.60;33.90;;;;;;5080460;28;20218;-65
2021/06/02 08:14:28;;;;;;;35.75;18.67;;;28.50;34.10;;;;;;5082953;28;20069;-65
2021/06/02 08:16:55;;;;;;;39.58;17.17;;;28.50;34.80;;;;;;5080379;28;20122;-65
2021/06/02 08:19:21;;;;;;;38.35;17.67;;;28.40;34.30;;;;;;5082008;28;20113;-65
2021/06/02 08:21:48;;;;;;;36.97;17.40;;;28.40;34.20;;;;;;5080018;28;20100;-65
2021/06/02 08:24:15;;;;;;;39.13;20.83;;;28.40;34.70;;;;;;5079946;28;20152;-65
2021/06/02 08:26:42;;;;;;;33.47;19.85;;;28.40;35.60;;;;;;5076845;28;20101;-65
2021/06/02 08:29:08;;;;;;;35.28;20.02;;;28.30;35.20;;;;;;5080309;28;20476;-65
2021/06/02 08:31:35;;;;;;;52.38;23.33;;;28.20;35.30;;;;;;5086877;28;20741;-65
2021/06/02 08:34:02;;;;;;;39.45;22.13;;;28.20;36.10;;;;;;5088538;28;20114;-65
2021/06/02 08:36:29;;;;;;;48.63;23.15;;;28.10;36.20;;;;;;5083385;28;20168;-65
2021/06/02 08:38:56;;;;;;;41.80;23.13;;;28.10;36.30;;;;;;5084121;28;20077;-65
2021/06/02 08:41:22;;;;;;;39.95;23.73;;;28.10;36.10;;;;;;5086238;28;20097;-65
2021/06/02 08:43:50;;;;;;;50.33;23.80;;;28.10;36.00;;;;;;5084336;28;20198;-65
2021/06/02 08:46:18;;;;;;;44.55;23.58;;;28.10;36.40;;;;;;5088691;28;20159;-65
2021/06/02 08:48:48;;;;;;;50.25;24.75;;;28.10;36.70;;;;;;5084706;28;20095;-65
2021/06/02 08:51:17;;;;;;;48.35;24.15;;;28.00;37.50;;;;;;5073637;28;20541;-65
2021/06/02 08:53:47;;;;;;;41.03;23.17;;;28.00;36.80;;;;;;5082671;28;20073;-65
2021/06/02 08:56:15;;;;;;;37.53;20.30;;;27.90;37.00;;;;;;5069235;28;20076;-65
2021/06/02 08:58:41;;;;;;;35.17;18.90;;;27.90;37.00;;;;;;5090048;28;20496;-65
2021/06/02 09:01:08;;;;;;;42.90;17.63;;;27.80;36.80;;;;;;5080445;28;20561;-65
2021/06/02 09:03:35;;;;;;;39.60;17.42;;;27.90;36.70;;;;;;5082624;28;20092;-65
2021/06/02 09:06:09;;;;;;;35.78;15.30;;;27.90;36.50;;;;;;5078489;28;20561;-65
2021/06/02 09:08:39;;;;;;;32.47;16.63;;;27.80;36.70;;;;;;5081404;28;20095;-65
2021/06/02 09:11:17;;;;;;;38.30;15.90;;;27.70;36.70;;;;;;5059006;28;20430;-65
2021/06/02 09:13:45;;;;;;;33.88;15.25;;;27.70;36.70;;;;;;5089224;28;20072;-65
2021/06/02 09:16:30;;;;;;;33.83;15.75;;;27.60;37.00;;;;;;5082276;28;20511;-65
2021/06/02 09:19:03;;;;;;;36.90;14.55;;;27.60;37.20;;;;;;5081850;28;20646;-65
2021/06/02 09:21:37;;;;;;;30.98;16.17;;;27.60;36.90;;;;;;5083685;28;20145;-64
2021/06/02 09:24:05;;;;;;;35.92;18.02;;;27.50;37.10;;;;;;5091422;28;20099;-65
2021/06/02 09:26:32;;;;;;;34.20;18.00;;;27.50;37.60;;;;;;5082519;28;20097;-65
2021/06/02 09:29:08;;;;;;;47.17;18.92;;;27.40;37.50;;;;;;5083245;28;20085;-65
2021/06/02 09:31:40;;;;;;;41.40;21.27;;;27.30;37.80;;;;;;5081967;28;20120;-65
2021/06/02 09:34:22;;;;;;;42.33;23.55;;;27.40;38.10;;;;;;5080838;28;20599;-65
2021/06/02 09:36:53;;;;;;;40.22;21.83;;;27.20;38.30;;;;;;5091540;28;20087;-65
2021/06/02 09:39:22;;;;;;;45.22;20.33;;;27.20;38.60;;;;;;5089991;28;20508;-65
2021/06/02 09:42:00;;;;;;;40.65;16.58;;;27.30;39.00;;;;;;5076248;28;20100;-65
2021/06/02 09:44:30;;;;;;;24.65;13.32;;;27.30;39.30;;;;;;5082760;28;20067;-64
2021/06/02 09:47:04;;;;;;;37.10;14.13;;;27.20;39.40;;;;;;5087090;28;20077;-64
2021/06/02 09:49:52;;;;;;;34.70;14.05;;;27.10;39.80;;;;;;5081599;28;20068;-64
2021/06/02 09:52:36;;;;;;;31.42;12.40;;;27.10;40.10;;;;;;5079725;28;20108;-64
2021/06/02 09:55:24;;;;;;;35.88;12.00;;;27.10;40.00;;;;;;5090316;28;20419;-65
2021/06/02 09:58:09;;;;;;;27.50;11.13;;;27.10;40.00;;;;;;5080216;28;20072;-64
2021/06/02 10:00:38;;;;;;;27.92;11.13;;;27.10;40.10;;;;;;5075518;28;20177;-64
2021/06/02 10:03:20;;;;;;;30.52;11.80;;;27.10;40.40;;;;;;5081509;28;20324;-64
2021/06/02 10:05:51;;;;;;;24.40;10.18;;;27.00;40.60;;;;;;5087132;28;20150;-64
2021/06/02 10:08:32;;;;;;;24.80;9.50;;;27.00;41.10;;;;;;5078925;28;20073;-65
2021/06/02 10:11:12;;;;;;;23.27;8.25;;;27.00;41.30;;;;;;5080366;28;20104;-64
2021/06/02 10:13:39;;;;;;;26.25;7.35;;;27.00;41.30;;;;;;5080865;28;20076;-65
2021/06/02 10:16:08;;;;;;;17.70;6.07;;;27.00;41.30;;;;;;5080011;28;20095;-65
2021/06/02 10:18:38;;;;;;;19.30;6.22;;;27.00;41.40;;;;;;5079132;28;20170;-65
2021/06/02 10:21:11;;;;;;;22.90;5.35;;;26.90;41.50;;;;;;5073584;28;20124;-65
2021/06/02 10:23:43;;;;;;;15.52;5.05;;;26.80;41.80;;;;;;5059425;28;20167;-64
2021/06/02 10:26:17;;;;;;;11.23;4.47;;;26.70;42.00;;;;;;5079437;28;20065;-64
2021/06/02 10:28:46;;;;;;;14.07;4.00;;;26.80;42.00;;;;;;5083924;28;20541;-64
2021/06/02 10:31:14;;;;;;;14.55;3.90;;;26.80;42.00;;;;;;5086634;28;20445;-64
2021/06/02 10:33:41;;;;;;;18.25;3.72;;;26.70;41.90;;;;;;5088344;28;20096;-64
2021/06/02 10:36:09;;;;;;;10.98;3.55;;;26.70;41.90;;;;;;5084783;28;20546;-65
2021/06/02 10:38:47;;;;;;;17.00;3.40;;;26.70;41.90;;;;;;5080335;28;20084;-64
2021/06/02 10:41:32;;;;;;;11.20;2.60;;;26.70;42.20;;;;;;5084786;28;20096;-64
2021/06/02 10:44:26;;;;;;;13.65;2.40;;;26.70;42.70;;;;;;5086252;28;20085;-64
2021/06/02 10:46:53;;;;;;;6.25;2.35;;;26.70;43.40;;;;;;5076858;28;20104;-64
2021/06/02 10:49:28;;;;;;;7.07;2.60;;;26.70;43.80;;;;;;5081510;28;20126;-64
2021/06/02 10:51:56;;;;;;;12.05;2.80;;;26.70;44.00;;;;;;5085829;28;20137;-65
2021/06/02 10:54:34;;;;;;;9.50;3.72;;;26.70;44.40;;;;;;5076013;28;20549;-65
2021/06/02 10:57:01;;;;;;;16.77;4.82;;;26.60;44.50;;;;;;5079138;28;20521;-65
2021/06/02 10:59:31;;;;;;;19.60;5.50;;;26.60;44.50;;;;;;5083290;28;20549;-65
2021/06/02 11:02:11;;;;;;;20.40;7.32;;;26.70;44.80;;;;;;5079495;28;20133;-65
2021/06/02 11:04:40;;;;;;;26.20;8.98;;;26.60;44.50;;;;;;5084615;28;20446;-65
2021/06/02 11:07:17;;;;;;;26.60;9.57;;;26.60;44.10;;;;;;5072801;28;20138;-65
2021/06/02 11:10:06;;;;;;;23.92;9.60;;;26.60;43.80;;;;;;5080407;28;20083;-65
2021/06/02 11:12:48;;;;;;;23.85;8.82;;;26.60;43.50;;;;;;5073845;28;20131;-65
2021/06/02 11:15:36;;;;;;;27.52;9.40;;;26.70;42.10;;;;;;5075036;28;20081;-65
2021/06/02 11:18:09;;;;;;;26.30;10.23;;;26.70;41.70;;;;;;5085632;28;20081;-65
2021/06/02 11:20:49;;;;;;;26.17;11.63;;;26.70;41.40;;;;;;5082806;28;20448;-65
2021/06/02 11:23:20;;;;;;;36.88;15.25;;;26.60;41.70;;;;;;5081775;28;20445;-65
2021/06/02 11:25:49;;;;;;;32.90;16.27;;;26.60;42.30;;;;;;5080601;28;20087;-65
2021/06/02 11:28:41;;;;;;;40.10;19.02;;;26.50;42.70;;;;;;5079022;28;20214;-65
2021/06/02 11:31:34;;;;;;;47.33;26.08;;;26.40;43.10;;;;;;5077226;28;20077;-65
2021/06/02 11:34:29;;;;;;;43.85;26.80;;;26.30;44.00;;;;;;5073827;28;20088;-65
2021/06/02 11:37:06;;;;;;;47.72;23.77;;;26.10;45.00;;;;;;5079922;28;20130;-65
2021/06/02 11:39:36;;;;;;;37.47;17.23;;;26.00;46.00;;;;;;5085680;28;20064;-65
2021/06/02 11:42:04;;;;;;;29.52;13.85;;;26.00;46.90;;;;;;5075269;28;20104;-65
2021/06/02 11:44:32;;;;;;;20.05;10.70;;;25.90;47.70;;;;;;5076245;28;20072;-65
2021/06/02 11:46:59;;;;;;;14.73;4.18;;;25.80;48.60;;;;;;5075397;28;20082;-65
2021/06/02 11:49:34;;;;;;;17.00;4.07;;;25.60;50.00;;;;;;5078397;28;20485;-65
2021/06/02 11:52:27;;;;;;;10.50;2.42;;;25.60;50.90;;;;;;5077911;28;20075;-65
2021/06/02 11:54:55;;;;;;;8.63;2.53;;;25.60;51.60;;;;;;5074318;28;20104;-65
2021/06/02 11:57:39;;;;;;;7.63;2.38;;;25.40;52.10;;;;;;5081458;28;20073;-64
2021/06/02 12:00:35;;;;;;;6.82;2.20;;;25.40;52.90;;;;;;5083876;28;20084;-64
2021/06/02 12:03:10;;;;;;;9.75;1.88;;;25.30;53.50;;;;;;5080055;28;20107;-64
2021/06/02 12:05:42;;;;;;;11.98;2.60;;;25.30;54.00;;;;;;5079364;28;20491;-64
2021/06/02 12:08:09;;;;;;;7.25;1.83;;;25.30;54.50;;;;;;5080506;28;20083;-64
2021/06/02 12:10:42;;;;;;;6.85;2.03;;;25.30;54.60;;;;;;5091001;28;20081;-64
2021/06/02 12:13:24;;;;;;;10.48;2.10;;;25.30;55.00;;;;;;5085692;28;20120;-64
2021/06/02 12:15:52;;;;;;;8.85;2.20;;;25.20;55.80;;;;;;5080155;28;20073;-65
2021/06/02 12:18:50;;;;;;;8.35;2.03;;;25.20;56.30;;;;;;5081914;28;20167;-64
2021/06/02 12:21:30;;;;;;;10.32;2.00;;;25.10;57.40;;;;;;5069557;28;20115;-64
2021/06/02 12:24:04;;;;;;;14.02;2.63;;;25.10;58.30;;;;;;5069182;28;20068;-64
2021/06/02 12:26:40;;;;;;;11.90;2.25;;;25.10;59.10;;;;;;5089344;28;20111;-64
2021/06/02 12:29:08;;;;;;;10.35;2.72;;;25.00;59.90;;;;;;5084751;28;20538;-65
2021/06/02 12:31:37;;;;;;;12.15;2.60;;;25.00;60.60;;;;;;5082894;28;20553;-65
2021/06/02 12:34:03;;;;;;;11.10;2.65;;;25.00;61.60;;;;;;5085281;28;20564;-65
2021/06/02 12:36:32;;;;;;;11.55;2.92;;;25.00;62.40;;;;;;5069433;28;20133;-65
2021/06/02 12:39:05;;;;;;;15.15;3.25;;;24.90;63.70;;;;;;5089334;28;20077;-65
2021/06/02 12:41:32;;;;;;;9.77;3.00;;;24.90;65.60;;;;;;5076427;28;20171;-65
2021/06/02 12:44:03;;;;;;;16.58;4.05;;;24.90;67.00;;;;;;5093256;28;20065;-65
2021/06/02 12:46:30;;;;;;;16.70;4.30;;;24.90;68.10;;;;;;5080542;28;20432;-66
2021/06/02 12:48:57;;;;;;;15.38;4.25;;;24.90;69.00;;;;;;5087641;28;20077;-66
2021/06/02 12:51:27;;;;;;;16.58;4.30;;;24.80;69.60;;;;;;5087944;28;20077;-66
2021/06/02 12:53:53;;;;;;;15.90;3.58;;;24.80;70.30;;;;;;5087213;28;20152;-66
2021/06/02 12:56:21;;;;;;;28.55;3.58;;;24.70;71.20;;;;;;5084368;28;20084;-66
2021/06/02 12:58:56;;;;;;;17.48;3.72;;;24.80;72.40;;;;;;5074463;28;20076;-65
2021/06/02 13:01:29;;;;;;;19.88;3.53;;;24.80;73.30;;;;;;5071857;28;20523;-66
2021/06/02 13:03:58;;;;;;;15.02;3.72;;;24.80;73.50;;;;;;5081615;28;20084;-66
2021/06/02 13:06:27;;;;;;;16.20;3.42;;;24.80;73.70;;;;;;5082247;28;20073;-66
2021/06/02 13:08:53;;;;;;;11.70;2.80;;;24.70;75.00;;;;;;5082949;28;20516;-66
2021/06/02 13:11:31;;;;;;;11.18;2.80;;;24.60;76.40;;;;;;5078487;28;20155;-66
2021/06/02 13:14:00;;;;;;;16.33;2.75;;;24.50;77.20;;;;;;5073257;28;20064;-66
2021/06/02 13:16:27;;;;;;;14.80;2.70;;;24.60;77.70;;;;;;5082415;28;20079;-65
2021/06/02 13:19:06;;;;;;;12.43;3.00;;;24.50;78.60;;;;;;5085894;28;20112;-65
2021/06/02 13:21:36;;;;;;;18.95;3.72;;;24.60;78.90;;;;;;5079323;28;20107;-65
2021/06/02 13:24:11;;;;;;;8.57;2.60;;;24.50;79.90;;;;;;5083012;28;20455;-65